CheckWX is a tool to help pilots better visualize weather data.  It is not intended as a substitute for an official pre-flight weather briefing.

12:04:12 UTC

KADS METAR
Addison Airport
Dallas, Texas, USA
Current

14 mins ago

KADS 041150Z 35010G13KT 10SM OVC009 06/03 A3006
Observed
Apr-4 @ 11:50 UTC
Wind
  • 350° at 10 KTS
  • Gusting to 13 KTS
Visibility
Flight Rules
IFR
Cloud Levels
  • Overcast at 900' AGL
Temperature
C / 43°F
Dewpoint
C / 37°F
Humidity
81%
Altimeter
30.06" Hg
Pressure
1017.92 hPa
Previous

1 hour ago

KADS 041059Z 35011KT 10SM OVC009 05/04 A3005
Observed
Apr-4 @ 10:59 UTC
Wind
  • 350° at 11 KTS
Visibility
Flight Rules
IFR
Cloud Levels
  • Overcast at 900' AGL
Temperature
C / 41°F
Dewpoint
C / 39°F
Humidity
93%
Altimeter
30.05" Hg
Pressure
1017.62 hPa
Previous

1 hour ago

KADS 041035Z AUTO 35011G14KT 10SM OVC009 04/03 A3007 RMK AO2 T00420029
Observed
Apr-4 @ 10:35 UTC
Wind
  • 350° at 11 KTS
  • Gusting to 14 KTS
Visibility
Flight Rules
IFR
Cloud Levels
  • Overcast at 900' AGL
Temperature
C / 39°F
Dewpoint
C / 37°F
Humidity
93%
Altimeter
30.07" Hg
Pressure
1018.32 hPa